sensor_id;sensor_type;location;lat;lon;timestamp;pressure;altitude;pressure_sealevel;temperature;humidity
60642;BME280;46837;52.446;-1.930;2023-05-14T00:00:09;101067.68;;;10.99;77.25
60642;BME280;46837;52.446;-1.930;2023-05-14T00:01:09;101065.45;;;11.00;77.26
60642;BME280;46837;52.446;-1.930;2023-05-14T00:02:09;101063.93;;;10.97;77.36
60642;BME280;46837;52.446;-1.930;2023-05-14T00:03:09;101063.94;;;10.97;77.44
60642;BME280;46837;52.446;-1.930;2023-05-14T00:04:09;101059.88;;;10.96;77.35
60642;BME280;46837;52.446;-1.930;2023-05-14T00:05:09;101056.74;;;10.98;77.11
60642;BME280;46837;52.446;-1.930;2023-05-14T00:06:09;101058.66;;;10.98;76.95
60642;BME280;46837;52.446;-1.930;2023-05-14T00:07:09;101055.10;;;10.95;77.13
60642;BME280;46837;52.446;-1.930;2023-05-14T00:08:09;101058.33;;;10.95;76.98
60642;BME280;46837;52.446;-1.930;2023-05-14T00:09:09;101055.67;;;10.93;77.09
60642;BME280;46837;52.446;-1.930;2023-05-14T00:10:09;101058.43;;;10.94;77.02
60642;BME280;46837;52.446;-1.930;2023-05-14T00:11:10;101056.41;;;10.95;76.97
60642;BME280;46837;52.446;-1.930;2023-05-14T00:12:09;101058.31;;;10.92;76.94
60642;BME280;46837;52.446;-1.930;2023-05-14T00:13:09;101051.91;;;10.92;76.77
60642;BME280;46837;52.446;-1.930;2023-05-14T00:14:09;101050.68;;;10.89;76.91
60642;BME280;46837;52.446;-1.930;2023-05-14T00:15:09;101046.50;;;10.88;76.96
60642;BME280;46837;52.446;-1.930;2023-05-14T00:16:09;101044.10;;;10.85;77.03
60642;BME280;46837;52.446;-1.930;2023-05-14T00:17:09;101044.15;;;10.84;77.16
60642;BME280;46837;52.446;-1.930;2023-05-14T00:18:09;101042.14;;;10.85;76.89
60642;BME280;46837;52.446;-1.930;2023-05-14T00:19:09;101043.41;;;10.82;76.96
60642;BME280;46837;52.446;-1.930;2023-05-14T00:20:09;101044.51;;;10.79;77.02
60642;BME280;46837;52.446;-1.930;2023-05-14T00:21:09;101043.41;;;10.79;77.11
60642;BME280;46837;52.446;-1.930;2023-05-14T00:22:09;101043.80;;;10.76;77.08
60642;BME280;46837;52.446;-1.930;2023-05-14T00:23:09;101044.91;;;10.74;77.22
60642;BME280;46837;52.446;-1.930;2023-05-14T00:24:09;101040.75;;;10.73;77.19
60642;BME280;46837;52.446;-1.930;2023-05-14T00:25:09;101039.19;;;10.71;77.24
60642;BME280;46837;52.446;-1.930;2023-05-14T00:26:09;101038.08;;;10.67;77.30
60642;BME280;46837;52.446;-1.930;2023-05-14T00:27:09;101040.27;;;10.67;77.29
60642;BME280;46837;52.446;-1.930;2023-05-14T00:28:09;101034.20;;;10.67;77.12
60642;BME280;46837;52.446;-1.930;2023-05-14T00:29:09;101036.72;;;10.67;77.01
60642;BME280;46837;52.446;-1.930;2023-05-14T00:30:09;101033.82;;;10.68;76.94
60642;BME280;46837;52.446;-1.930;2023-05-14T00:31:09;101033.90;;;10.65;76.96
60642;BME280;46837;52.446;-1.930;2023-05-14T00:32:09;101031.30;;;10.61;77.17
60642;BME280;46837;52.446;-1.930;2023-05-14T00:33:09;101035.45;;;10.60;77.12
60642;BME280;46837;52.446;-1.930;2023-05-14T00:34:09;101030.83;;;10.61;77.11
60642;BME280;46837;52.446;-1.930;2023-05-14T00:35:09;101031.63;;;10.63;76.99
60642;BME280;46837;52.446;-1.930;2023-05-14T00:36:09;101033.15;;;10.60;76.94
60642;BME280;46837;52.446;-1.930;2023-05-14T00:37:09;101028.36;;;10.58;76.93
60642;BME280;46837;52.446;-1.930;2023-05-14T00:38:09;101028.18;;;10.57;76.89
60642;BME280;46837;52.446;-1.930;2023-05-14T00:39:09;101029.24;;;10.51;77.05
60642;BME280;46837;52.446;-1.930;2023-05-14T00:40:09;101026.50;;;10.51;77.15
60642;BME280;46837;52.446;-1.930;2023-05-14T00:41:09;101024.77;;;10.46;77.27
60642;BME280;46837;52.446;-1.930;2023-05-14T00:42:09;101023.51;;;10.48;77.27
60642;BME280;46837;52.446;-1.930;2023-05-14T00:43:09;101022.64;;;10.49;77.21
60642;BME280;46837;52.446;-1.930;2023-05-14T00:44:09;101021.08;;;10.47;77.21
60642;BME280;46837;52.446;-1.930;2023-05-14T00:45:09;101018.71;;;10.49;77.09
60642;BME280;46837;52.446;-1.930;2023-05-14T00:46:09;101015.97;;;10.48;77.04
60642;BME280;46837;52.446;-1.930;2023-05-14T00:47:09;101015.64;;;10.45;77.12
60642;BME280;46837;52.446;-1.930;2023-05-14T00:48:09;101013.02;;;10.39;77.34
60642;BME280;46837;52.446;-1.930;2023-05-14T00:49:09;101014.91;;;10.35;77.62
60642;BME280;46837;52.446;-1.930;2023-05-14T00:50:09;101011.43;;;10.38;77.59
60642;BME280;46837;52.446;-1.930;2023-05-14T00:51:09;101009.52;;;10.35;77.48
60642;BME280;46837;52.446;-1.930;2023-05-14T00:52:09;101013.23;;;10.36;77.49
60642;BME280;46837;52.446;-1.930;2023-05-14T00:53:12;101008.43;;;10.33;77.49
60642;BME280;46837;52.446;-1.930;2023-05-14T00:54:09;101005.68;;;10.32;77.48
60642;BME280;46837;52.446;-1.930;2023-05-14T00:55:09;101006.91;;;10.23;77.75
60642;BME280;46837;52.446;-1.930;2023-05-14T00:56:09;101003.12;;;10.19;77.97
60642;BME280;46837;52.446;-1.930;2023-05-14T00:57:09;101003.36;;;10.11;78.21
60642;BME280;46837;52.446;-1.930;2023-05-14T00:58:12;101003.78;;;10.03;78.56
60642;BME280;46837;52.446;-1.930;2023-05-14T00:59:09;101005.18;;;10.06;78.71
60642;BME280;46837;52.446;-1.930;2023-05-14T01:00:09;101004.55;;;10.10;78.28
60642;BME280;46837;52.446;-1.930;2023-05-14T01:01:09;101002.53;;;10.07;78.18
60642;BME280;46837;52.446;-1.930;2023-05-14T01:02:09;101003.19;;;10.04;78.30
60642;BME280;46837;52.446;-1.930;2023-05-14T01:03:09;100997.22;;;9.98;78.45
60642;BME280;46837;52.446;-1.930;2023-05-14T01:04:09;100998.30;;;9.96;78.50
60642;BME280;46837;52.446;-1.930;2023-05-14T01:05:09;100999.14;;;10.01;78.47
60642;BME280;46837;52.446;-1.930;2023-05-14T01:07:19;100998.66;;;10.02;78.07
60642;BME280;46837;52.446;-1.930;2023-05-14T01:08:15;100998.05;;;10.03;78.00
60642;BME280;46837;52.446;-1.930;2023-05-14T01:09:58;100997.82;;;10.01;78.00
60642;BME280;46837;52.446;-1.930;2023-05-14T01:10:14;100994.46;;;9.99;78.02
60642;BME280;46837;52.446;-1.930;2023-05-14T01:11:16;100990.00;;;9.97;78.03
60642;BME280;46837;52.446;-1.930;2023-05-14T01:13:12;100995.48;;;9.95;78.14
60642;BME280;46837;52.446;-1.930;2023-05-14T01:15:13;100990.75;;;9.93;78.05
60642;BME280;46837;52.446;-1.930;2023-05-14T01:16:11;100986.18;;;9.96;78.01
60642;BME280;46837;52.446;-1.930;2023-05-14T01:17:09;100987.87;;;9.97;77.76
60642;BME280;46837;52.446;-1.930;2023-05-14T01:18:09;100983.77;;;9.91;77.82
60642;BME280;46837;52.446;-1.930;2023-05-14T01:19:20;100985.22;;;9.84;78.20
60642;BME280;46837;52.446;-1.930;2023-05-14T01:20:09;100981.73;;;9.81;78.39
60642;BME280;46837;52.446;-1.930;2023-05-14T01:22:09;100980.88;;;9.85;78.19
60642;BME280;46837;52.446;-1.930;2023-05-14T01:23:09;100974.93;;;9.88;78.00
60642;BME280;46837;52.446;-1.930;2023-05-14T01:24:09;100975.68;;;9.87;77.95
60642;BME280;46837;52.446;-1.930;2023-05-14T01:25:09;100974.52;;;9.87;77.95
60642;BME280;46837;52.446;-1.930;2023-05-14T01:26:09;100973.15;;;9.89;77.84
60642;BME280;46837;52.446;-1.930;2023-05-14T01:29:15;100977.32;;;9.87;78.05
60642;BME280;46837;52.446;-1.930;2023-05-14T01:31:16;100973.94;;;9.90;77.69
60642;BME280;46837;52.446;-1.930;2023-05-14T01:32:09;100972.29;;;9.92;77.55
60642;BME280;46837;52.446;-1.930;2023-05-14T01:33:14;100973.12;;;9.91;77.39
60642;BME280;46837;52.446;-1.930;2023-05-14T01:34:09;100970.81;;;9.90;77.30
60642;BME280;46837;52.446;-1.930;2023-05-14T01:35:09;100970.66;;;9.84;77.49
60642;BME280;46837;52.446;-1.930;2023-05-14T01:36:09;100970.77;;;9.79;77.94
60642;BME280;46837;52.446;-1.930;2023-05-14T01:37:09;100970.71;;;9.81;77.94
60642;BME280;46837;52.446;-1.930;2023-05-14T01:38:10;100972.98;;;9.83;77.72
60642;BME280;46837;52.446;-1.930;2023-05-14T01:39:09;100970.82;;;9.84;77.71
60642;BME280;46837;52.446;-1.930;2023-05-14T01:40:09;100973.12;;;9.84;77.72
60642;BME280;46837;52.446;-1.930;2023-05-14T01:41:09;100972.99;;;9.86;77.51
60642;BME280;46837;52.446;-1.930;2023-05-14T01:42:09;100969.22;;;9.89;77.29
60642;BME280;46837;52.446;-1.930;2023-05-14T01:43:09;100966.50;;;9.89;77.07
60642;BME280;46837;52.446;-1.930;2023-05-14T01:44:09;100964.21;;;9.84;77.27
60642;BME280;46837;52.446;-1.930;2023-05-14T01:45:09;100965.39;;;9.83;77.37
60642;BME280;46837;52.446;-1.930;2023-05-14T01:46:09;100963.48;;;9.83;77.35
60642;BME280;46837;52.446;-1.930;2023-05-14T01:47:09;100964.28;;;9.82;77.43
60642;BME280;46837;52.446;-1.930;2023-05-14T01:48:09;100964.63;;;9.83;77.36
60642;BME280;46837;52.446;-1.930;2023-05-14T01:49:09;100964.23;;;9.83;77.22
60642;BME280;46837;52.446;-1.930;2023-05-14T01:50:09;100963.90;;;9.85;77.30
60642;BME280;46837;52.446;-1.930;2023-05-14T01:51:09;100963.22;;;9.87;77.14
60642;BME280;46837;52.446;-1.930;2023-05-14T01:52:09;100963.23;;;9.87;77.03
60642;BME280;46837;52.446;-1.930;2023-05-14T01:53:09;100961.93;;;9.87;76.84
60642;BME280;46837;52.446;-1.930;2023-05-14T01:54:09;100965.02;;;9.87;76.81
60642;BME280;46837;52.446;-1.930;2023-05-14T01:55:09;100962.65;;;9.85;76.78
60642;BME280;46837;52.446;-1.930;2023-05-14T01:56:09;100963.09;;;9.83;76.91
60642;BME280;46837;52.446;-1.930;2023-05-14T01:57:09;100959.60;;;9.83;76.97
60642;BME280;46837;52.446;-1.930;2023-05-14T01:58:09;100959.00;;;9.83;77.02
60642;BME280;46837;52.446;-1.930;2023-05-14T01:59:09;100957.96;;;9.82;77.09
60642;BME280;46837;52.446;-1.930;2023-05-14T02:00:09;100955.83;;;9.82;77.04
60642;BME280;46837;52.446;-1.930;2023-05-14T02:01:09;100954.26;;;9.83;77.04
60642;BME280;46837;52.446;-1.930;2023-05-14T02:02:09;100955.20;;;9.84;76.99
60642;BME280;46837;52.446;-1.930;2023-05-14T02:03:09;100955.27;;;9.84;77.00
60642;BME280;46837;52.446;-1.930;2023-05-14T02:04:09;100947.87;;;9.86;76.82
60642;BME280;46837;52.446;-1.930;2023-05-14T02:05:09;100945.58;;;9.86;76.78
60642;BME280;46837;52.446;-1.930;2023-05-14T02:06:09;100947.36;;;9.85;76.92
60642;BME280;46837;52.446;-1.930;2023-05-14T02:07:09;100941.46;;;9.85;76.99
60642;BME280;46837;52.446;-1.930;2023-05-14T02:08:09;100943.45;;;9.86;76.90
60642;BME280;46837;52.446;-1.930;2023-05-14T02:09:09;100945.97;;;9.87;76.86
60642;BME280;46837;52.446;-1.930;2023-05-14T02:10:09;100944.75;;;9.88;76.78
60642;BME280;46837;52.446;-1.930;2023-05-14T02:11:09;100946.88;;;9.88;76.73
60642;BME280;46837;52.446;-1.930;2023-05-14T02:12:09;100945.37;;;9.87;76.69
60642;BME280;46837;52.446;-1.930;2023-05-14T02:13:09;100945.44;;;9.84;76.73
60642;BME280;46837;52.446;-1.930;2023-05-14T02:14:09;100947.64;;;9.82;76.83
60642;BME280;46837;52.446;-1.930;2023-05-14T02:15:09;100946.94;;;9.83;76.88
60642;BME280;46837;52.446;-1.930;2023-05-14T02:16:09;100948.02;;;9.82;76.99
60642;BME280;46837;52.446;-1.930;2023-05-14T02:17:09;100949.85;;;9.81;76.97
60642;BME280;46837;52.446;-1.930;2023-05-14T02:18:09;100946.77;;;9.79;77.07
60642;BME280;46837;52.446;-1.930;2023-05-14T02:19:09;100946.34;;;9.80;77.05
60642;BME280;46837;52.446;-1.930;2023-05-14T02:20:09;100947.73;;;9.78;77.12
60642;BME280;46837;52.446;-1.930;2023-05-14T02:21:09;100946.58;;;9.78;77.27
60642;BME280;46837;52.446;-1.930;2023-05-14T02:22:09;100945.86;;;9.77;77.17
60642;BME280;46837;52.446;-1.930;2023-05-14T02:23:09;100945.95;;;9.79;77.09
60642;BME280;46837;52.446;-1.930;2023-05-14T02:24:09;100947.02;;;9.78;77.07
60642;BME280;46837;52.446;-1.930;2023-05-14T02:25:09;100948.16;;;9.75;77.30
60642;BME280;46837;52.446;-1.930;2023-05-14T02:26:10;100942.76;;;9.72;77.45
60642;BME280;46837;52.446;-1.930;2023-05-14T02:27:09;100944.73;;;9.72;77.53
60642;BME280;46837;52.446;-1.930;2023-05-14T02:28:09;100939.43;;;9.72;77.42
60642;BME280;46837;52.446;-1.930;2023-05-14T02:29:09;100934.84;;;9.72;77.34
60642;BME280;46837;52.446;-1.930;2023-05-14T02:30:09;100936.05;;;9.73;77.35
60642;BME280;46837;52.446;-1.930;2023-05-14T02:31:09;100936.01;;;9.70;77.51
60642;BME280;46837;52.446;-1.930;2023-05-14T02:32:09;100931.31;;;9.70;77.55
60642;BME280;46837;52.446;-1.930;2023-05-14T02:33:09;100935.82;;;9.71;77.58
60642;BME280;46837;52.446;-1.930;2023-05-14T02:34:10;100930.81;;;9.73;77.57
60642;BME280;46837;52.446;-1.930;2023-05-14T02:35:09;100925.89;;;9.75;77.61
60642;BME280;46837;52.446;-1.930;2023-05-14T02:36:09;100924.09;;;9.75;77.52
60642;BME280;46837;52.446;-1.930;2023-05-14T02:37:09;100925.68;;;9.76;77.41
60642;BME280;46837;52.446;-1.930;2023-05-14T02:38:09;100922.03;;;9.75;77.26
60642;BME280;46837;52.446;-1.930;2023-05-14T02:39:09;100925.80;;;9.67;77.52
60642;BME280;46837;52.446;-1.930;2023-05-14T02:40:09;100922.30;;;9.58;77.94
60642;BME280;46837;52.446;-1.930;2023-05-14T02:41:09;100919.23;;;9.54;78.17
60642;BME280;46837;52.446;-1.930;2023-05-14T02:42:09;100920.33;;;9.57;78.08
60642;BME280;46837;52.446;-1.930;2023-05-14T02:43:09;100919.08;;;9.61;77.73
60642;BME280;46837;52.446;-1.930;2023-05-14T02:44:09;100917.96;;;9.60;77.74
60642;BME280;46837;52.446;-1.930;2023-05-14T02:45:09;100918.41;;;9.60;77.71
60642;BME280;46837;52.446;-1.930;2023-05-14T02:46:09;100916.25;;;9.55;77.72
60642;BME280;46837;52.446;-1.930;2023-05-14T02:47:09;100915.24;;;9.55;77.78
60642;BME280;46837;52.446;-1.930;2023-05-14T02:48:09;100912.86;;;9.52;77.91
60642;BME280;46837;52.446;-1.930;2023-05-14T02:49:09;100911.56;;;9.47;78.19
60642;BME280;46837;52.446;-1.930;2023-05-14T02:50:09;100912.12;;;9.48;78.30
60642;BME280;46837;52.446;-1.930;2023-05-14T02:51:09;100907.70;;;9.50;78.06
60642;BME280;46837;52.446;-1.930;2023-05-14T02:52:09;100909.02;;;9.51;77.88
60642;BME280;46837;52.446;-1.930;2023-05-14T02:53:09;100907.71;;;9.51;77.70
60642;BME280;46837;52.446;-1.930;2023-05-14T02:54:09;100904.05;;;9.49;77.65
60642;BME280;46837;52.446;-1.930;2023-05-14T02:55:09;100905.95;;;9.48;77.71
60642;BME280;46837;52.446;-1.930;2023-05-14T02:56:09;100906.18;;;9.50;77.71
60642;BME280;46837;52.446;-1.930;2023-05-14T02:57:09;100907.28;;;9.52;77.50
60642;BME280;46837;52.446;-1.930;2023-05-14T02:58:09;100905.32;;;9.49;77.43
60642;BME280;46837;52.446;-1.930;2023-05-14T02:59:09;100904.52;;;9.50;77.43
60642;BME280;46837;52.446;-1.930;2023-05-14T03:00:09;100901.27;;;9.49;77.34
60642;BME280;46837;52.446;-1.930;2023-05-14T03:01:09;100901.03;;;9.44;77.37
60642;BME280;46837;52.446;-1.930;2023-05-14T03:02:09;100900.61;;;9.42;77.47
60642;BME280;46837;52.446;-1.930;2023-05-14T03:03:09;100899.10;;;9.41;77.66
60642;BME280;46837;52.446;-1.930;2023-05-14T03:04:09;100901.22;;;9.40;77.55
60642;BME280;46837;52.446;-1.930;2023-05-14T03:05:09;100903.26;;;9.41;77.52
60642;BME280;46837;52.446;-1.930;2023-05-14T03:06:09;100902.34;;;9.42;77.36
60642;BME280;46837;52.446;-1.930;2023-05-14T03:07:09;100899.56;;;9.42;77.24
60642;BME280;46837;52.446;-1.930;2023-05-14T03:08:09;100897.66;;;9.42;77.15
60642;BME280;46837;52.446;-1.930;2023-05-14T03:09:09;100894.42;;;9.41;77.16
60642;BME280;46837;52.446;-1.930;2023-05-14T03:10:09;100892.87;;;9.34;77.34
60642;BME280;46837;52.446;-1.930;2023-05-14T03:11:09;100895.72;;;9.32;77.58
60642;BME280;46837;52.446;-1.930;2023-05-14T03:12:09;100893.81;;;9.26;77.82
60642;BME280;46837;52.446;-1.930;2023-05-14T03:13:11;100891.48;;;9.30;77.59
60642;BME280;46837;52.446;-1.930;2023-05-14T03:14:09;100890.51;;;9.31;77.38
60642;BME280;46837;52.446;-1.930;2023-05-14T03:15:09;100888.45;;;9.33;77.29
60642;BME280;46837;52.446;-1.930;2023-05-14T03:16:09;100885.66;;;9.28;77.29
60642;BME280;46837;52.446;-1.930;2023-05-14T03:17:09;100882.55;;;9.25;77.50
60642;BME280;46837;52.446;-1.930;2023-05-14T03:18:09;100884.54;;;9.24;77.63
60642;BME280;46837;52.446;-1.930;2023-05-14T03:19:09;100882.58;;;9.21;77.72
60642;BME280;46837;52.446;-1.930;2023-05-14T03:20:09;100881.50;;;9.16;77.88
60642;BME280;46837;52.446;-1.930;2023-05-14T03:21:09;100880.79;;;9.18;78.04
60642;BME280;46837;52.446;-1.930;2023-05-14T03:22:09;100880.55;;;9.21;77.90
60642;BME280;46837;52.446;-1.930;2023-05-14T03:23:09;100878.80;;;9.20;77.93
60642;BME280;46837;52.446;-1.930;2023-05-14T03:24:09;100876.32;;;9.24;77.78
60642;BME280;46837;52.446;-1.930;2023-05-14T03:25:09;100878.51;;;9.25;77.58
60642;BME280;46837;52.446;-1.930;2023-05-14T03:26:09;100875.16;;;9.27;77.44
60642;BME280;46837;52.446;-1.930;2023-05-14T03:27:09;100872.87;;;9.26;77.40
60642;BME280;46837;52.446;-1.930;2023-05-14T03:28:09;100868.37;;;9.25;77.39
60642;BME280;46837;52.446;-1.930;2023-05-14T03:29:09;100866.15;;;9.24;77.43
60642;BME280;46837;52.446;-1.930;2023-05-14T03:30:09;100865.43;;;9.22;77.43
60642;BME280;46837;52.446;-1.930;2023-05-14T03:31:09;100866.09;;;9.23;77.42
60642;BME280;46837;52.446;-1.930;2023-05-14T03:32:09;100863.46;;;9.22;77.36
60642;BME280;46837;52.446;-1.930;2023-05-14T03:33:09;100865.92;;;9.22;77.42
60642;BME280;46837;52.446;-1.930;2023-05-14T03:34:09;100864.43;;;9.21;77.46
60642;BME280;46837;52.446;-1.930;2023-05-14T03:35:09;100864.42;;;9.24;77.36
60642;BME280;46837;52.446;-1.930;2023-05-14T03:36:09;100861.94;;;9.25;77.28
60642;BME280;46837;52.446;-1.930;2023-05-14T03:37:09;100864.08;;;9.26;77.36
60642;BME280;46837;52.446;-1.930;2023-05-14T03:38:09;100864.25;;;9.27;77.22
60642;BME280;46837;52.446;-1.930;2023-05-14T03:39:09;100861.89;;;9.28;77.15
60642;BME280;46837;52.446;-1.930;2023-05-14T03:40:09;100863.20;;;9.25;77.28
60642;BME280;46837;52.446;-1.930;2023-05-14T03:41:09;100863.24;;;9.28;77.29
60642;BME280;46837;52.446;-1.930;2023-05-14T03:42:09;100860.78;;;9.30;77.30
60642;BME280;46837;52.446;-1.930;2023-05-14T03:43:09;100864.32;;;9.30;77.29
60642;BME280;46837;52.446;-1.930;2023-05-14T03:44:09;100864.99;;;9.28;77.32
60642;BME280;46837;52.446;-1.930;2023-05-14T03:45:09;100865.18;;;9.26;77.39
60642;BME280;46837;52.446;-1.930;2023-05-14T03:46:09;100864.28;;;9.25;77.46
60642;BME280;46837;52.446;-1.930;2023-05-14T03:47:09;100863.04;;;9.24;77.49
60642;BME280;46837;52.446;-1.930;2023-05-14T03:48:09;100863.00;;;9.21;77.63
60642;BME280;46837;52.446;-1.930;2023-05-14T03:49:09;100860.30;;;9.22;77.73
60642;BME280;46837;52.446;-1.930;2023-05-14T03:50:09;100861.94;;;9.22;77.66
60642;BME280;46837;52.446;-1.930;2023-05-14T03:51:09;100858.95;;;9.23;77.70
60642;BME280;46837;52.446;-1.930;2023-05-14T03:52:09;100861.15;;;9.24;77.78
60642;BME280;46837;52.446;-1.930;2023-05-14T03:53:09;100858.80;;;9.26;77.87
60642;BME280;46837;52.446;-1.930;2023-05-14T03:54:09;100855.20;;;9.29;77.81
60642;BME280;46837;52.446;-1.930;2023-05-14T03:55:09;100853.75;;;9.28;77.68
60642;BME280;46837;52.446;-1.930;2023-05-14T03:56:09;100850.11;;;9.25;77.76
60642;BME280;46837;52.446;-1.930;2023-05-14T03:57:09;100853.34;;;9.27;77.86
60642;BME280;46837;52.446;-1.930;2023-05-14T03:58:12;100847.61;;;9.27;77.75
60642;BME280;46837;52.446;-1.930;2023-05-14T03:59:09;100851.55;;;9.26;77.61
60642;BME280;46837;52.446;-1.930;2023-05-14T04:00:09;100846.88;;;9.28;77.59
60642;BME280;46837;52.446;-1.930;2023-05-14T04:01:09;100848.58;;;9.28;77.55
60642;BME280;46837;52.446;-1.930;2023-05-14T04:02:09;100845.60;;;9.27;77.65
60642;BME280;46837;52.446;-1.930;2023-05-14T04:03:09;100845.36;;;9.28;77.63
60642;BME280;46837;52.446;-1.930;2023-05-14T04:04:09;100847.08;;;9.29;77.59
60642;BME280;46837;52.446;-1.930;2023-05-14T04:05:09;100845.22;;;9.27;77.60
60642;BME280;46837;52.446;-1.930;2023-05-14T04:06:09;100843.81;;;9.29;77.65
60642;BME280;46837;52.446;-1.930;2023-05-14T04:07:09;100841.42;;;9.30;77.65
60642;BME280;46837;52.446;-1.930;2023-05-14T04:08:09;100841.52;;;9.30;77.63
60642;BME280;46837;52.446;-1.930;2023-05-14T04:09:09;100839.39;;;9.29;77.61
60642;BME280;46837;52.446;-1.930;2023-05-14T04:10:09;100836.28;;;9.29;77.50
60642;BME280;46837;52.446;-1.930;2023-05-14T04:11:09;100837.99;;;9.30;77.52
60642;BME280;46837;52.446;-1.930;2023-05-14T04:12:09;100835.46;;;9.29;77.43
60642;BME280;46837;52.446;-1.930;2023-05-14T04:13:09;100834.63;;;9.29;77.35
60642;BME280;46837;52.446;-1.930;2023-05-14T04:14:09;100830.92;;;9.27;77.31
60642;BME280;46837;52.446;-1.930;2023-05-14T04:15:09;100835.85;;;9.26;77.24
60642;BME280;46837;52.446;-1.930;2023-05-14T04:16:09;100834.05;;;9.25;77.40
60642;BME280;46837;52.446;-1.930;2023-05-14T04:17:09;100834.48;;;9.24;77.41
60642;BME280;46837;52.446;-1.930;2023-05-14T04:18:09;100835.14;;;9.24;77.29
60642;BME280;46837;52.446;-1.930;2023-05-14T04:19:09;100839.92;;;9.23;77.41
60642;BME280;46837;52.446;-1.930;2023-05-14T04:20:09;100840.28;;;9.22;77.46
60642;BME280;46837;52.446;-1.930;2023-05-14T04:21:09;100836.87;;;9.24;77.43
60642;BME280;46837;52.446;-1.930;2023-05-14T04:22:09;100842.62;;;9.22;77.38
60642;BME280;46837;52.446;-1.930;2023-05-14T04:23:09;100839.68;;;9.19;77.52
60642;BME280;46837;52.446;-1.930;2023-05-14T04:24:09;100843.40;;;9.20;77.58
60642;BME280;46837;52.446;-1.930;2023-05-14T04:25:09;100839.07;;;9.18;77.51
60642;BME280;46837;52.446;-1.930;2023-05-14T04:26:09;100836.90;;;9.20;77.56
60642;BME280;46837;52.446;-1.930;2023-05-14T04:27:09;100841.78;;;9.24;77.41
60642;BME280;46837;52.446;-1.930;2023-05-14T04:28:09;100841.08;;;9.21;77.38
60642;BME280;46837;52.446;-1.930;2023-05-14T04:29:09;100843.37;;;9.21;77.43
60642;BME280;46837;52.446;-1.930;2023-05-14T04:30:09;100841.54;;;9.22;77.35
60642;BME280;46837;52.446;-1.930;2023-05-14T04:31:09;100838.48;;;9.22;77.36
60642;BME280;46837;52.446;-1.930;2023-05-14T04:32:09;100837.14;;;9.23;77.30
60642;BME280;46837;52.446;-1.930;2023-05-14T04:33:09;100842.10;;;9.23;77.27
60642;BME280;46837;52.446;-1.930;2023-05-14T04:34:09;100837.45;;;9.22;77.36
60642;BME280;46837;52.446;-1.930;2023-05-14T04:35:09;100836.26;;;9.23;77.42
60642;BME280;46837;52.446;-1.930;2023-05-14T04:36:09;100835.91;;;9.24;77.58
60642;BME280;46837;52.446;-1.930;2023-05-14T04:37:09;100831.77;;;9.25;77.53
60642;BME280;46837;52.446;-1.930;2023-05-14T04:38:09;100832.09;;;9.25;77.55
60642;BME280;46837;52.446;-1.930;2023-05-14T04:39:09;100827.47;;;9.22;77.67
60642;BME280;46837;52.446;-1.930;2023-05-14T04:40:09;100833.37;;;9.20;77.76
60642;BME280;46837;52.446;-1.930;2023-05-14T04:41:09;100828.79;;;9.20;77.91
60642;BME280;46837;52.446;-1.930;2023-05-14T04:42:09;100827.32;;;9.23;77.90
60642;BME280;46837;52.446;-1.930;2023-05-14T04:43:09;100829.49;;;9.20;77.98
60642;BME280;46837;52.446;-1.930;2023-05-14T04:44:09;100826.20;;;9.25;78.00
60642;BME280;46837;52.446;-1.930;2023-05-14T04:45:09;100825.15;;;9.27;77.86
60642;BME280;46837;52.446;-1.930;2023-05-14T04:46:09;100822.16;;;9.30;77.84
60642;BME280;46837;52.446;-1.930;2023-05-14T04:47:09;100824.21;;;9.35;77.72
60642;BME280;46837;52.446;-1.930;2023-05-14T04:48:09;100825.51;;;9.37;77.54
60642;BME280;46837;52.446;-1.930;2023-05-14T04:49:09;100823.47;;;9.39;77.57
60642;BME280;46837;52.446;-1.930;2023-05-14T04:50:09;100825.28;;;9.42;77.46
60642;BME280;46837;52.446;-1.930;2023-05-14T04:51:09;100824.06;;;9.44;77.51
60642;BME280;46837;52.446;-1.930;2023-05-14T04:52:09;100824.97;;;9.43;77.62
60642;BME280;46837;52.446;-1.930;2023-05-14T04:53:09;100820.25;;;9.45;77.83
60642;BME280;46837;52.446;-1.930;2023-05-14T04:54:09;100819.60;;;9.49;77.77
60642;BME280;46837;52.446;-1.930;2023-05-14T04:55:09;100816.81;;;9.50;78.07
60642;BME280;46837;52.446;-1.930;2023-05-14T04:56:09;100815.29;;;9.51;78.61
60642;BME280;46837;52.446;-1.930;2023-05-14T04:57:09;100816.86;;;9.51;79.04
60642;BME280;46837;52.446;-1.930;2023-05-14T04:58:09;100815.07;;;9.55;79.11
60642;BME280;46837;52.446;-1.930;2023-05-14T04:59:09;100815.07;;;9.52;79.44
60642;BME280;46837;52.446;-1.930;2023-05-14T05:00:09;100815.71;;;9.56;79.50
60642;BME280;46837;52.446;-1.930;2023-05-14T05:01:09;100812.99;;;9.57;79.56
60642;BME280;46837;52.446;-1.930;2023-05-14T05:02:09;100813.50;;;9.58;79.58
60642;BME280;46837;52.446;-1.930;2023-05-14T05:03:09;100815.32;;;9.60;79.69
60642;BME280;46837;52.446;-1.930;2023-05-14T05:04:09;100817.05;;;9.65;79.63
60642;BME280;46837;52.446;-1.930;2023-05-14T05:05:09;100815.83;;;9.67;79.65
60642;BME280;46837;52.446;-1.930;2023-05-14T05:06:09;100815.85;;;9.67;79.80
60642;BME280;46837;52.446;-1.930;2023-05-14T05:07:09;100813.19;;;9.68;79.82
60642;BME280;46837;52.446;-1.930;2023-05-14T05:08:09;100814.80;;;9.71;79.92
60642;BME280;46837;52.446;-1.930;2023-05-14T05:09:09;100812.79;;;9.71;80.03
60642;BME280;46837;52.446;-1.930;2023-05-14T05:10:09;100812.22;;;9.73;79.94
60642;BME280;46837;52.446;-1.930;2023-05-14T05:11:09;100811.08;;;9.77;79.74
60642;BME280;46837;52.446;-1.930;2023-05-14T05:12:09;100815.62;;;9.77;79.77
60642;BME280;46837;52.446;-1.930;2023-05-14T05:13:09;100811.93;;;9.75;79.95
60642;BME280;46837;52.446;-1.930;2023-05-14T05:14:09;100810.24;;;9.75;79.90
60642;BME280;46837;52.446;-1.930;2023-05-14T05:15:09;100809.29;;;9.74;80.21
60642;BME280;46837;52.446;-1.930;2023-05-14T05:16:09;100809.48;;;9.63;80.41
60642;BME280;46837;52.446;-1.930;2023-05-14T05:17:09;100805.10;;;9.65;80.78
60642;BME280;46837;52.446;-1.930;2023-05-14T05:18:09;100803.61;;;9.64;80.67
60642;BME280;46837;52.446;-1.930;2023-05-14T05:19:09;100806.59;;;9.66;80.76